Time,TemperatureF,DewpointF,PressureIn,WindDirection,WindDirectionDegrees,WindSpeedMPH,WindSpeedGustMPH,Humidity,HourlyPrecipIn,Conditions,Clouds,dailyrainin,SoftwareType,DateUTC
2013-12-06 00:05:00,51.2,50.0,29.88,NNW,329,0.0,0.0,97,0.00,,,0.00,weatherlink.com 1.10,2013-12-06 05:05:00,
2013-12-06 00:20:00,50.6,50.0,29.88,WNW,286,1.0,4.0,96,0.00,,,0.00,weatherlink.com 1.10,2013-12-06 05:20:00,
2013-12-06 00:35:00,49.9,48.0,29.89,West,281,4.0,8.0,94,0.00,,,0.00,weatherlink.com 1.10,2013-12-06 05:35:00,
2013-12-06 00:50:00,49.0,47.0,29.89,West,271,3.0,7.0,91,0.00,,,0.00,weatherlink.com 1.10,2013-12-06 05:50:00,
2013-12-06 01:05:00,48.4,45.0,29.90,NNW,335,0.0,8.0,89,0.00,,,0.00,weatherlink.com 1.10,2013-12-06 06:05:00,
2013-12-06 01:20:00,47.9,45.0,29.89,NW,308,0.0,8.0,88,0.00,,,0.00,weatherlink.com 1.10,2013-12-06 06:20:00,
2013-12-06 01:35:00,47.5,44.0,29.88,WNW,285,0.0,2.0,88,0.00,,,0.00,weatherlink.com 1.10,2013-12-06 06:35:00,
2013-12-06 01:50:00,47.2,44.0,29.87,WNW,298,0.0,9.0,88,0.00,,,0.00,weatherlink.com 1.10,2013-12-06 06:50:00,
2013-12-06 03:09:00,44.2,43.0,29.93,WNW,298,0.0,8.0,94,0.03,,,0.03,weatherlink.com 1.10,2013-12-06 08:09:00,
2013-12-06 03:20:00,43.7,42.0,29.93,WNW,302,0.0,7.0,95,0.03,,,0.00,weatherlink.com 1.10,2013-12-06 08:20:00,
2013-12-06 03:35:00,42.9,42.0,29.94,NNW,333,2.0,5.0,95,0.04,,,0.01,weatherlink.com 1.10,2013-12-06 08:35:00,
2013-12-06 03:50:00,42.2,41.0,29.95,NW,309,4.0,9.0,95,0.02,,,0.01,weatherlink.com 1.10,2013-12-06 08:50:00,
2013-12-06 04:05:00,41.5,40.0,29.96,NNW,348,2.0,7.0,95,0.03,,,0.02,weatherlink.com 1.10,2013-12-06 09:05:00,
2013-12-06 04:20:00,40.8,40.0,29.98,NW,304,5.0,7.0,95,0.01,,,0.02,weatherlink.com 1.10,2013-12-06 09:20:00,
2013-12-06 04:35:00,40.0,39.0,29.98,North,350,0.0,5.0,95,0.05,,,0.06,weatherlink.com 1.10,2013-12-06 09:35:00,
2013-12-06 04:50:00,39.6,38.0,29.98,NNE,19,0.0,2.0,95,0.07,,,0.08,weatherlink.com 1.10,2013-12-06 09:50:00,
2013-12-06 05:05:00,39.4,38.0,29.94,East,80,0.0,4.0,96,0.06,,,0.08,weatherlink.com 1.10,2013-12-06 10:05:00,
2013-12-06 05:20:00,39.4,38.0,29.97,NNW,348,0.0,0.0,96,0.06,,,0.08,weatherlink.com 1.10,2013-12-06 10:20:00,
2013-12-06 05:36:00,39.4,38.0,29.98,NW,307,0.0,0.0,96,0.03,,,0.09,weatherlink.com 1.10,2013-12-06 10:36:00,
2013-12-06 05:51:00,39.4,39.0,29.98,NW,307,0.0,0.0,97,0.02,,,0.10,weatherlink.com 1.10,2013-12-06 10:51:00,
2013-12-06 06:06:00,39.3,39.0,29.96,NW,307,0.0,0.0,97,0.03,,,0.11,weatherlink.com 1.10,2013-12-06 11:06:00,
2013-12-06 06:21:00,39.1,38.0,29.98,NW,307,0.0,0.0,97,0.04,,,0.12,weatherlink.com 1.10,2013-12-06 11:21:00,
2013-12-06 06:36:00,38.9,38.0,30.01,WNW,284,0.0,3.0,97,0.03,,,0.12,weatherlink.com 1.10,2013-12-06 11:36:00,
2013-12-06 06:51:00,38.5,38.0,30.01,WNW,285,0.0,3.0,97,0.03,,,0.13,weatherlink.com 1.10,2013-12-06 11:51:00,
2013-12-06 07:06:00,37.9,37.0,30.01,NNW,331,1.0,8.0,97,0.02,,,0.13,weatherlink.com 1.10,2013-12-06 12:06:00,
2013-12-06 07:21:00,37.6,37.0,30.02,NNW,327,2.0,6.0,96,0.01,,,0.13,weatherlink.com 1.10,2013-12-06 12:21:00,
2013-12-06 07:36:00,37.5,37.0,30.03,NW,306,1.0,6.0,96,0.01,,,0.13,weatherlink.com 1.10,2013-12-06 12:36:00,
2013-12-06 07:51:00,37.5,37.0,30.04,NW,319,0.0,9.0,96,0.00,,,0.13,weatherlink.com 1.10,2013-12-06 12:51:00,
2013-12-06 08:06:00,37.5,37.0,30.04,North,5,2.0,7.0,96,0.00,,,0.13,weatherlink.com 1.10,2013-12-06 13:06:00,
2013-12-06 08:21:00,37.5,36.0,30.03,West,261,0.0,5.0,95,0.00,,,0.13,weatherlink.com 1.10,2013-12-06 13:21:00,
2013-12-06 08:36:00,37.6,36.0,30.04,West,281,0.0,5.0,94,0.00,,,0.13,weatherlink.com 1.10,2013-12-06 13:36:00,
2013-12-06 08:51:00,37.7,36.0,30.04,NNW,330,0.0,5.0,94,0.00,,,0.13,weatherlink.com 1.10,2013-12-06 13:51:00,
2013-12-06 09:06:00,37.9,36.0,30.04,NNW,338,1.0,7.0,93,0.00,,,0.13,weatherlink.com 1.10,2013-12-06 14:06:00,
2013-12-06 09:21:00,37.9,36.0,30.05,WNW,302,2.0,10.0,92,0.00,,,0.13,weatherlink.com 1.10,2013-12-06 14:21:00,
2013-12-06 09:36:00,38.0,36.0,30.05,NW,316,1.0,9.0,91,0.00,,,0.13,weatherlink.com 1.10,2013-12-06 14:36:00,
2013-12-06 09:51:00,38.2,36.0,30.05,WNW,283,3.0,9.0,91,0.00,,,0.13,weatherlink.com 1.10,2013-12-06 14:51:00,
2013-12-06 10:06:00,38.4,36.0,30.05,WNW,292,7.0,12.0,90,0.00,,,0.13,weatherlink.com 1.10,2013-12-06 15:06:00,
2013-12-06 10:21:00,38.2,35.0,30.04,NNW,338,5.0,14.0,89,0.00,,,0.13,weatherlink.com 1.10,2013-12-06 15:21:00,
2013-12-06 10:36:00,38.2,35.0,30.05,WNW,299,2.0,10.0,88,0.00,,,0.13,weatherlink.com 1.10,2013-12-06 15:36:00,
2013-12-06 10:51:00,38.2,35.0,30.06,NW,325,8.0,14.0,87,0.00,,,0.13,weatherlink.com 1.10,2013-12-06 15:51:00,
2013-12-06 11:06:00,38.3,35.0,30.04,NW,306,2.0,11.0,87,0.00,,,0.13,weatherlink.com 1.10,2013-12-06 16:06:00,
2013-12-06 11:21:00,38.5,35.0,30.06,West,269,4.0,7.0,87,0.00,,,0.13,weatherlink.com 1.10,2013-12-06 16:21:00,
2013-12-06 11:36:00,38.5,35.0,30.04,WNW,292,3.0,7.0,86,0.00,,,0.13,weatherlink.com 1.10,2013-12-06 16:36:00,
2013-12-06 11:51:00,38.6,35.0,30.05,WNW,288,1.0,9.0,86,0.00,,,0.13,weatherlink.com 1.10,2013-12-06 16:51:00,
2013-12-06 12:06:00,38.9,35.0,30.04,WNW,297,6.0,13.0,85,0.00,,,0.13,weatherlink.com 1.10,2013-12-06 17:06:00,
2013-12-06 12:21:00,38.8,34.0,30.04,NW,322,5.0,12.0,83,0.00,,,0.13,weatherlink.com 1.10,2013-12-06 17:21:00,
2013-12-06 12:36:00,38.8,34.0,30.04,NNW,344,2.0,8.0,83,0.00,,,0.13,weatherlink.com 1.10,2013-12-06 17:36:00,
2013-12-06 12:51:00,39.0,34.0,30.04,WSW,254,0.0,11.0,83,0.00,,,0.13,weatherlink.com 1.10,2013-12-06 17:51:00,
2013-12-06 13:06:00,39.0,34.0,30.03,WNW,283,0.0,11.0,82,0.00,,,0.13,weatherlink.com 1.10,2013-12-06 18:06:00,
2013-12-06 13:21:00,38.9,34.0,30.04,North,355,8.0,14.0,82,0.00,,,0.13,weatherlink.com 1.10,2013-12-06 18:21:00,
2013-12-06 13:36:00,38.8,34.0,30.05,NW,313,2.0,15.0,82,0.00,,,0.13,weatherlink.com 1.10,2013-12-06 18:36:00,
2013-12-06 13:51:00,38.6,34.0,30.02,North,355,3.0,13.0,82,0.00,,,0.13,weatherlink.com 1.10,2013-12-06 18:51:00,
2013-12-06 14:06:00,38.5,34.0,30.02,NW,308,0.0,11.0,83,0.00,,,0.13,weatherlink.com 1.10,2013-12-06 19:06:00,
2013-12-06 14:21:00,38.4,34.0,30.04,North,11,2.0,11.0,83,0.00,,,0.13,weatherlink.com 1.10,2013-12-06 19:21:00,
2013-12-06 14:36:00,38.3,34.0,30.03,West,279,7.0,9.0,83,0.00,,,0.13,weatherlink.com 1.10,2013-12-06 19:36:00,
2013-12-06 15:22:00,38.3,32.0,30.05,WSW,255,2.0,8.0,78,0.00,,,0.13,weatherlink.com 1.10,2013-12-06 20:22:00,
2013-12-06 15:37:00,38.3,32.0,30.05,NNW,338,4.0,9.0,77,0.00,,,0.13,weatherlink.com 1.10,2013-12-06 20:37:00,
2013-12-06 16:28:00,37.9,32.0,30.05,WNW,286,1.0,6.0,79,0.00,,,0.13,weatherlink.com 1.10,2013-12-06 21:28:00,
2013-12-06 16:37:00,37.9,32.0,30.05,WSW,255,4.0,7.0,79,0.00,,,0.13,weatherlink.com 1.10,2013-12-06 21:37:00,
2013-12-06 16:52:00,37.8,32.0,30.05,NNW,344,0.0,9.0,79,0.00,,,0.13,weatherlink.com 1.10,2013-12-06 21:52:00,
2013-12-06 17:07:00,37.6,32.0,30.06,WNW,286,5.0,9.0,80,0.00,,,0.13,weatherlink.com 1.10,2013-12-06 22:07:00,
2013-12-06 17:22:00,37.6,32.0,30.08,WNW,301,2.0,7.0,80,0.00,,,0.13,weatherlink.com 1.10,2013-12-06 22:22:00,
2013-12-06 17:37:00,37.5,32.0,30.08,West,281,2.0,8.0,80,0.00,,,0.13,weatherlink.com 1.10,2013-12-06 22:37:00,
2013-12-06 17:52:00,37.5,32.0,30.09,WNW,288,3.0,10.0,79,0.00,,,0.13,weatherlink.com 1.10,2013-12-06 22:52:00,
2013-12-06 18:07:00,37.5,32.0,30.09,NW,304,1.0,7.0,79,0.00,,,0.13,weatherlink.com 1.10,2013-12-06 23:07:00,
2013-12-06 18:22:00,37.4,32.0,30.11,NNW,338,3.0,9.0,80,0.00,,,0.13,weatherlink.com 1.10,2013-12-06 23:22:00,
2013-12-06 18:37:00,37.2,32.0,30.09,WNW,292,0.0,9.0,80,0.00,,,0.13,weatherlink.com 1.10,2013-12-06 23:37:00,
2013-12-06 18:52:00,36.8,32.0,30.09,WNW,291,2.0,6.0,81,0.00,,,0.13,weatherlink.com 1.10,2013-12-06 23:52:00,
2013-12-06 19:07:00,36.6,31.0,30.09,NW,323,1.0,5.0,81,0.00,,,0.13,weatherlink.com 1.10,2013-12-07 00:07:00,
2013-12-06 19:22:00,36.4,31.0,30.09,NW,311,0.0,8.0,81,0.00,,,0.13,weatherlink.com 1.10,2013-12-07 00:22:00,
2013-12-06 19:37:00,36.2,31.0,30.08,West,274,0.0,6.0,81,0.00,,,0.13,weatherlink.com 1.10,2013-12-07 00:37:00,
2013-12-06 19:52:00,36.1,31.0,30.09,NW,313,4.0,7.0,82,0.00,,,0.13,weatherlink.com 1.10,2013-12-07 00:52:00,
2013-12-06 20:07:00,36.1,31.0,30.11,West,277,4.0,12.0,81,0.00,,,0.13,weatherlink.com 1.10,2013-12-07 01:07:00,
2013-12-06 20:22:00,36.3,31.0,30.15,West,259,5.0,14.0,80,0.00,,,0.13,weatherlink.com 1.10,2013-12-07 01:22:00,
2013-12-06 20:37:00,36.3,31.0,30.14,NNW,345,0.0,11.0,81,0.00,,,0.13,weatherlink.com 1.10,2013-12-07 01:37:00,
2013-12-06 20:52:00,36.3,31.0,30.13,WNW,288,2.0,8.0,81,0.00,,,0.13,weatherlink.com 1.10,2013-12-07 01:52:00,
2013-12-06 21:07:00,35.8,31.0,30.12,NNW,334,4.0,9.0,82,0.00,,,0.13,weatherlink.com 1.10,2013-12-07 02:07:00,
2013-12-06 21:22:00,34.9,31.0,30.11,WNW,287,4.0,14.0,85,0.00,,,0.13,weatherlink.com 1.10,2013-12-07 02:22:00,
2013-12-06 21:38:00,34.5,31.0,30.11,West,281,0.0,4.0,87,0.00,,,0.13,weatherlink.com 1.10,2013-12-07 02:38:00,
2013-12-06 21:53:00,34.1,31.0,30.12,NW,320,1.0,5.0,88,0.00,,,0.13,weatherlink.com 1.10,2013-12-07 02:53:00,
2013-12-06 22:08:00,34.1,31.0,30.14,NW,321,3.0,7.0,88,0.00,,,0.13,weatherlink.com 1.10,2013-12-07 03:08:00,
2013-12-06 22:23:00,34.0,31.0,30.14,NW,323,1.0,5.0,88,0.01,,,0.14,weatherlink.com 1.10,2013-12-07 03:23:00,
2013-12-06 22:38:00,33.6,31.0,30.15,WNW,292,0.0,7.0,89,0.01,,,0.14,weatherlink.com 1.10,2013-12-07 03:38:00,
2013-12-06 22:53:00,32.8,31.0,30.16,West,275,2.0,7.0,92,0.02,,,0.15,weatherlink.com 1.10,2013-12-07 03:53:00,
2013-12-06 23:08:00,32.2,31.0,30.16,NW,306,0.0,3.0,94,0.03,,,0.16,weatherlink.com 1.10,2013-12-07 04:08:00,
2013-12-06 23:23:00,31.8,31.0,30.16,WNW,294,0.0,5.0,95,0.03,,,0.17,weatherlink.com 1.10,2013-12-07 04:23:00,
2013-12-06 23:38:00,31.6,30.0,30.15,WNW,294,0.0,0.0,95,0.03,,,0.17,weatherlink.com 1.10,2013-12-07 04:38:00,
2013-12-06 23:53:00,31.5,30.0,30.15,WNW,294,0.0,0.0,95,0.02,,,0.17,weatherlink.com 1.10,2013-12-07 04:53:00,